createdAt,value
2022-07-28T07:19:24.180Z,93.27
2022-07-28T11:09:43.849Z,77.67
2022-07-28T11:10:43.817Z,77.61
2022-07-28T11:11:43.822Z,76.09
2022-07-28T11:12:43.787Z,75.85
2022-07-28T11:13:43.770Z,74.92
2022-07-28T11:14:43.756Z,74.24
2022-07-28T11:15:43.747Z,73.75
2022-07-28T11:16:43.746Z,73.89
2022-07-28T11:17:43.740Z,73.21
2022-07-28T11:18:43.717Z,74.74
2022-07-28T11:19:55.660Z,75.23
2022-07-28T11:20:43.681Z,75.95
2022-07-28T11:21:43.768Z,73.41
2022-07-28T11:22:43.678Z,72.67
2022-07-28T11:23:51.520Z,71.43
2022-07-28T11:24:43.643Z,73.18
2022-07-28T11:25:43.628Z,73.08
2022-07-28T11:26:43.619Z,73.34
2022-07-28T11:27:45.294Z,74.97
2022-07-28T11:28:43.585Z,74.46
2022-07-28T11:29:43.574Z,72.74
2022-07-28T11:30:43.608Z,71.08
2022-07-28T11:31:43.561Z,69.72
2022-07-28T11:32:44.421Z,70.31
2022-07-28T11:33:46.970Z,70.83
2022-07-28T11:34:43.531Z,69.95
2022-07-28T11:35:43.505Z,69.79
2022-07-28T11:36:43.503Z,69.82
2022-07-28T11:37:43.505Z,67.61
2022-07-28T11:38:43.482Z,65.46
2022-07-28T11:39:44.206Z,66.50
2022-07-28T11:40:43.463Z,67.86
2022-07-28T11:41:43.438Z,68.23
2022-07-28T11:42:43.441Z,69.84
2022-07-28T11:43:43.430Z,71.01
2022-07-28T11:44:43.413Z,70.76
2022-07-28T11:45:50.382Z,70.07
2022-07-28T11:46:43.411Z,69.62
2022-07-28T11:47:43.385Z,68.68
2022-07-28T11:48:43.402Z,68.71
2022-07-28T11:49:43.361Z,67.68
2022-07-28T11:50:43.341Z,66.99
2022-07-28T11:51:51.326Z,65.88
2022-07-28T11:52:43.335Z,66.96
2022-07-28T11:53:43.329Z,68.13
2022-07-28T11:54:43.304Z,68.07
2022-07-28T11:55:49.176Z,66.96
2022-07-28T11:56:43.283Z,67.02
2022-07-28T11:57:43.275Z,67.32
2022-07-28T11:58:43.274Z,68.45
2022-07-28T11:59:43.242Z,68.52
2022-07-28T12:00:43.240Z,68.62
2022-07-28T12:01:43.233Z,68.49
2022-07-28T12:02:43.294Z,67.12
2022-07-28T12:03:50.311Z,68.32
2022-07-28T12:04:43.226Z,69.39
2022-07-28T12:05:43.508Z,68.90
2022-07-28T12:06:43.359Z,68.03
2022-07-28T12:07:43.156Z,67.71
2022-07-28T12:08:43.158Z,67.25
2022-07-28T12:09:43.160Z,66.34
2022-07-28T12:10:54.008Z,66.14
2022-07-28T12:11:43.129Z,66.01
2022-07-28T12:12:43.117Z,65.39
2022-07-28T12:13:43.114Z,64.54
2022-07-28T12:14:43.101Z,64.78
2022-07-28T12:15:43.089Z,66.66
2022-07-28T12:16:43.185Z,65.65
2022-07-28T12:17:43.059Z,65.04
2022-07-28T12:18:43.121Z,65.75
2022-07-28T12:19:43.062Z,66.24
2022-07-28T12:20:43.030Z,66.08
2022-07-28T12:21:46.403Z,64.45
2022-07-28T12:22:43.012Z,65.66
2022-07-28T12:23:45.963Z,64.58
2022-07-28T12:24:45.061Z,64.55
2022-07-28T12:25:42.984Z,67.48
2022-07-28T12:26:42.988Z,66.34
2022-07-28T12:27:44.784Z,67.74
2022-07-28T12:28:42.965Z,68.62
2022-07-28T12:29:42.960Z,66.99
2022-07-28T12:30:42.949Z,64.32
2022-07-28T12:31:42.974Z,65.49
2022-07-28T12:32:42.920Z,66.37
2022-07-28T12:33:42.921Z,66.05
2022-07-28T12:34:42.922Z,67.32
2022-07-28T12:35:42.928Z,69.26
2022-07-28T12:36:42.890Z,70.07
2022-07-28T12:37:42.875Z,70.82
2022-07-28T12:38:42.865Z,67.80
2022-07-28T12:39:43.037Z,67.08
2022-07-28T12:40:42.844Z,67.12
2022-07-28T12:41:42.838Z,67.32
2022-07-28T12:42:42.834Z,68.68
2022-07-28T12:43:42.819Z,70.20
2022-07-28T12:44:42.827Z,69.87
2022-07-28T12:45:42.854Z,68.74
2022-07-28T12:46:42.792Z,68.68
2022-07-28T12:47:42.779Z,67.35
2022-07-28T12:48:42.832Z,67.15
2022-07-28T12:49:42.809Z,68.94
2022-07-28T12:50:42.750Z,69.65
2022-07-28T12:51:42.742Z,67.44
2022-07-28T12:52:42.740Z,66.93
2022-07-28T12:53:42.767Z,66.37
2022-07-28T12:54:42.776Z,65.46
2022-07-28T12:55:42.703Z,65.75
2022-07-28T12:56:42.704Z,66.21
2022-07-28T12:57:48.601Z,65.46
2022-07-28T12:58:42.686Z,66.14
2022-07-28T12:59:42.720Z,66.93
2022-07-28T13:00:42.729Z,69.17
2022-07-28T13:01:42.651Z,64.54
2022-07-28T13:02:42.690Z,63.96
2022-07-28T13:03:42.652Z,63.67
2022-07-28T13:04:42.665Z,62.92
2022-07-28T13:05:42.613Z,62.72
2022-07-28T13:06:42.600Z,64.12
2022-07-28T13:07:42.604Z,65.69
2022-07-28T13:08:44.699Z,68.49
2022-07-28T13:09:42.574Z,67.67
2022-07-28T13:10:42.627Z,69.49
2022-07-28T13:11:46.089Z,71.73
2022-07-28T13:12:42.557Z,69.84
2022-07-28T13:13:42.553Z,73.45
2022-07-28T13:14:42.547Z,70.43
2022-07-28T13:15:42.540Z,68.77
2022-07-28T13:16:42.623Z,69.49
2022-07-28T13:17:42.505Z,68.74
2022-07-28T13:18:42.508Z,69.90
2022-07-28T13:19:42.535Z,71.07
2022-07-28T13:20:42.540Z,71.78
2022-07-28T13:21:57.583Z,70.42
2022-07-28T13:22:42.459Z,74.16
2022-07-28T13:23:42.448Z,73.15
2022-07-28T13:24:42.440Z,71.85
2022-07-28T13:25:42.455Z,70.97
2022-07-28T13:26:44.279Z,71.94
2022-07-28T13:27:42.414Z,72.72
2022-07-28T13:28:42.412Z,72.14
2022-07-28T13:29:42.428Z,72.43
2022-07-28T13:30:42.396Z,73.40
2022-07-28T13:31:42.428Z,72.53
2022-07-28T13:32:42.383Z,74.99
2022-07-28T13:33:42.355Z,75.48
2022-07-28T13:34:42.356Z,72.08
2022-07-28T13:35:42.354Z,72.27
2022-07-28T13:36:42.327Z,71.11
2022-07-28T13:37:42.340Z,72.72
2022-07-28T13:38:42.316Z,72.78
2022-07-28T13:39:42.308Z,74.54
2022-07-28T13:40:42.308Z,75.05
2022-07-28T13:41:56.490Z,74.76
2022-07-28T13:42:52.782Z,73.99
2022-07-28T13:43:42.269Z,74.57
2022-07-28T13:44:42.255Z,75.93
2022-07-28T13:45:42.347Z,75.38
2022-07-28T13:46:47.101Z,72.66
2022-07-28T13:47:42.222Z,76.07
2022-07-28T13:48:58.089Z,72.86
2022-07-28T13:49:42.239Z,72.76
2022-07-28T13:50:42.197Z,72.86
2022-07-28T13:51:42.202Z,70.32
2022-07-28T13:52:42.174Z,73.93
2022-07-28T13:53:42.169Z,73.24
2022-07-28T13:54:42.147Z,73.83
2022-07-28T13:55:42.139Z,73.24
2022-07-28T13:56:42.137Z,74.32
2022-07-28T13:57:43.288Z,73.99
2022-07-28T13:58:42.107Z,73.30
2022-07-28T13:59:42.129Z,73.21
2022-07-28T14:00:42.118Z,76.07
2022-07-28T14:01:42.317Z,73.63
2022-07-28T14:02:44.172Z,72.72
2022-07-28T14:03:55.769Z,72.92
2022-07-28T14:04:42.054Z,73.18
2022-07-28T14:05:42.040Z,72.92
2022-07-28T14:06:42.038Z,73.93
2022-07-28T14:07:42.032Z,73.83
2022-07-28T14:08:42.103Z,73.28
2022-07-28T14:09:42.033Z,73.02
2022-07-28T14:10:41.995Z,72.92
2022-07-28T14:11:49.373Z,72.05
2022-07-28T14:12:41.965Z,71.86
2022-07-28T14:13:41.965Z,70.59
2022-07-28T14:14:46.981Z,71.33
2022-07-28T14:15:41.946Z,72.50
2022-07-28T14:16:41.998Z,71.53
2022-07-28T14:17:43.736Z,71.53
2022-07-28T14:18:41.908Z,72.15
2022-07-28T14:19:41.933Z,71.08
2022-07-28T14:20:41.889Z,70.36
2022-07-28T14:21:41.900Z,70.81
2022-07-28T14:22:41.870Z,72.76
2022-07-28T14:23:41.862Z,74.16
2022-07-28T14:24:41.922Z,73.15
2022-07-28T14:25:49.216Z,72.99
2022-07-28T14:26:41.852Z,76.01
2022-07-28T14:27:41.821Z,73.77
2022-07-28T14:28:41.820Z,73.28
2022-07-28T14:29:41.823Z,73.96
2022-07-28T14:30:41.805Z,72.96
2022-07-28T14:31:41.835Z,72.96
2022-07-28T14:32:41.780Z,73.93
2022-07-28T14:33:47.400Z,73.96
2022-07-28T14:34:41.766Z,73.18
2022-07-28T14:35:41.742Z,73.34
2022-07-28T14:36:41.756Z,74.71
2022-07-28T14:38:11.541Z,73.34
2022-07-28T14:38:52.808Z,72.86
2022-07-28T14:39:41.729Z,72.86
2022-07-28T14:40:41.704Z,72.96
2022-07-28T14:41:41.717Z,75.03
2022-07-28T14:42:41.673Z,74.10
2022-07-28T14:43:41.677Z,72.92
2022-07-28T14:44:41.657Z,74.13
2022-07-28T14:46:00.686Z,72.86
2022-07-28T14:46:41.701Z,71.64
2022-07-28T14:47:44.286Z,71.64
2022-07-28T14:48:41.707Z,69.75
2022-07-28T14:49:57.740Z,69.97
2022-07-28T14:50:41.607Z,71.88
2022-07-28T14:51:44.644Z,71.72
2022-07-28T14:52:45.146Z,70.36
2022-07-28T14:53:43.229Z,70.20
2022-07-28T14:54:41.559Z,71.76
2022-07-28T14:55:41.560Z,69.94
2022-07-28T14:56:41.584Z,70.98
2022-07-28T14:57:52.187Z,70.53
2022-07-28T14:58:41.518Z,69.75
2022-07-28T14:59:41.521Z,70.50
2022-07-28T15:00:41.499Z,73.61
2022-07-28T15:01:41.670Z,72.73
2022-07-28T15:02:41.656Z,71.82
2022-07-28T15:03:43.417Z,71.94
2022-07-28T15:04:41.474Z,72.27
2022-07-28T15:05:41.459Z,72.63
2022-07-28T15:06:41.464Z,72.92
2022-07-28T15:07:41.453Z,75.19
2022-07-28T15:08:41.423Z,73.63
2022-07-28T15:09:43.476Z,74.16
2022-07-28T15:10:41.414Z,73.15
2022-07-28T15:11:41.407Z,72.86
2022-07-28T15:12:41.394Z,73.05
2022-07-28T15:13:41.410Z,71.82
2022-07-28T15:14:41.366Z,72.21
2022-07-28T15:15:44.702Z,73.28
2022-07-28T15:16:41.441Z,73.02
2022-07-28T15:17:41.335Z,73.38
2022-07-28T15:18:41.333Z,73.73
2022-07-28T15:19:41.322Z,73.73
2022-07-28T15:20:41.313Z,72.89
2022-07-28T15:21:41.313Z,73.15
2022-07-28T15:22:41.287Z,72.50
2022-07-28T15:23:41.279Z,73.63
2022-07-28T15:24:41.267Z,75.13
2022-07-28T15:25:41.264Z,73.86
2022-07-28T15:26:41.259Z,73.90
2022-07-28T15:27:45.348Z,74.97
2022-07-28T15:28:41.226Z,72.92
2022-07-28T15:29:42.831Z,72.89
2022-07-28T15:30:49.185Z,73.67
2022-07-28T15:31:41.295Z,73.93
2022-07-28T15:32:56.051Z,73.93
2022-07-28T15:33:47.616Z,74.22
2022-07-28T15:34:41.171Z,73.44
2022-07-28T15:35:57.713Z,74.02
2022-07-28T15:36:41.164Z,74.22
2022-07-28T15:37:41.139Z,74.99
2022-07-28T15:38:41.128Z,76.07
2022-07-28T15:39:45.028Z,76.84
2022-07-28T15:40:41.112Z,75.87
2022-07-28T15:41:41.119Z,76.55
2022-07-28T15:42:41.100Z,74.51
2022-07-28T15:43:41.087Z,75.19
2022-07-28T15:44:41.070Z,77.95
2022-07-28T15:45:41.059Z,77.08
2022-07-28T15:46:41.082Z,77.27
2022-07-28T15:47:41.039Z,76.68
2022-07-28T15:48:41.136Z,74.41
2022-07-28T15:49:41.035Z,74.28
2022-07-28T15:50:41.010Z,74.76
2022-07-28T15:51:41.010Z,73.99
2022-07-28T15:52:40.987Z,75.45
2022-07-28T15:53:40.987Z,74.80
2022-07-28T15:54:40.977Z,74.02
2022-07-28T15:55:40.982Z,75.78
2022-07-28T15:56:40.959Z,77.33
2022-07-28T15:57:40.947Z,74.71
2022-07-28T15:58:40.925Z,73.93
2022-07-28T15:59:49.450Z,73.93
2022-07-28T16:00:40.956Z,73.63
2022-07-28T16:01:45.446Z,74.02
